sensor_id;sensor_type;location;lat;lon;timestamp;P1;durP1;ratioP1;P2;durP2;ratioP2
42682;SDS011;28293;50.930;3.464;2023-03-01T00:01:47;18.50;;;11.43;;
42682;SDS011;28293;50.930;3.464;2023-03-01T00:04:13;15.02;;;12.10;;
42682;SDS011;28293;50.930;3.464;2023-03-01T00:06:39;17.52;;;11.27;;
42682;SDS011;28293;50.930;3.464;2023-03-01T00:09:06;15.75;;;11.38;;
42682;SDS011;28293;50.930;3.464;2023-03-01T00:11:32;14.20;;;11.60;;
42682;SDS011;28293;50.930;3.464;2023-03-01T00:13:59;15.73;;;11.80;;
42682;SDS011;28293;50.930;3.464;2023-03-01T00:16:30;16.52;;;12.52;;
42682;SDS011;28293;50.930;3.464;2023-03-01T00:18:58;16.10;;;12.73;;
42682;SDS011;28293;50.930;3.464;2023-03-01T00:21:24;19.17;;;12.73;;
42682;SDS011;28293;50.930;3.464;2023-03-01T00:23:51;15.13;;;10.73;;
42682;SDS011;28293;50.930;3.464;2023-03-01T00:26:18;14.30;;;10.93;;
42682;SDS011;28293;50.930;3.464;2023-03-01T00:28:45;14.10;;;10.93;;
42682;SDS011;28293;50.930;3.464;2023-03-01T00:31:12;15.07;;;10.90;;
42682;SDS011;28293;50.930;3.464;2023-03-01T00:33:39;14.95;;;11.45;;
42682;SDS011;28293;50.930;3.464;2023-03-01T00:36:06;17.23;;;11.35;;
42682;SDS011;28293;50.930;3.464;2023-03-01T00:38:35;15.70;;;10.95;;
42682;SDS011;28293;50.930;3.464;2023-03-01T00:41:05;15.70;;;11.18;;
42682;SDS011;28293;50.930;3.464;2023-03-01T00:43:32;15.63;;;11.25;;
42682;SDS011;28293;50.930;3.464;2023-03-01T00:46:02;15.10;;;10.85;;
42682;SDS011;28293;50.930;3.464;2023-03-01T00:48:32;17.23;;;11.98;;
42682;SDS011;28293;50.930;3.464;2023-03-01T00:51:03;16.70;;;11.82;;
42682;SDS011;28293;50.930;3.464;2023-03-01T00:53:33;15.15;;;10.98;;
42682;SDS011;28293;50.930;3.464;2023-03-01T00:56:00;20.95;;;12.77;;
42682;SDS011;28293;50.930;3.464;2023-03-01T00:58:26;15.48;;;11.68;;
42682;SDS011;28293;50.930;3.464;2023-03-01T01:00:52;16.45;;;11.80;;
42682;SDS011;28293;50.930;3.464;2023-03-01T01:03:18;14.40;;;11.35;;
42682;SDS011;28293;50.930;3.464;2023-03-01T01:05:44;17.70;;;12.25;;
42682;SDS011;28293;50.930;3.464;2023-03-01T01:08:10;15.25;;;11.90;;
42682;SDS011;28293;50.930;3.464;2023-03-01T01:10:35;15.68;;;11.23;;
42682;SDS011;28293;50.930;3.464;2023-03-01T01:13:01;15.50;;;11.88;;
42682;SDS011;28293;50.930;3.464;2023-03-01T01:15:27;18.05;;;13.07;;
42682;SDS011;28293;50.930;3.464;2023-03-01T01:17:53;17.77;;;12.65;;
42682;SDS011;28293;50.930;3.464;2023-03-01T01:20:19;16.75;;;12.07;;
42682;SDS011;28293;50.930;3.464;2023-03-01T01:22:45;16.30;;;11.90;;
42682;SDS011;28293;50.930;3.464;2023-03-01T01:25:11;17.35;;;12.43;;
42682;SDS011;28293;50.930;3.464;2023-03-01T01:27:37;18.83;;;12.52;;
42682;SDS011;28293;50.930;3.464;2023-03-01T01:30:03;17.08;;;12.25;;
42682;SDS011;28293;50.930;3.464;2023-03-01T01:32:29;17.63;;;13.35;;
42682;SDS011;28293;50.930;3.464;2023-03-01T01:34:55;15.63;;;12.48;;
42682;SDS011;28293;50.930;3.464;2023-03-01T01:37:20;18.10;;;13.35;;
42682;SDS011;28293;50.930;3.464;2023-03-01T01:39:46;18.02;;;13.43;;
42682;SDS011;28293;50.930;3.464;2023-03-01T01:42:14;17.73;;;12.80;;
42682;SDS011;28293;50.930;3.464;2023-03-01T01:44:42;18.95;;;13.93;;
42682;SDS011;28293;50.930;3.464;2023-03-01T01:47:13;19.40;;;14.07;;
42682;SDS011;28293;50.930;3.464;2023-03-01T01:49:43;19.75;;;13.52;;
42682;SDS011;28293;50.930;3.464;2023-03-01T01:52:31;19.92;;;15.02;;
42682;SDS011;28293;50.930;3.464;2023-03-01T01:55:01;21.10;;;14.73;;
42682;SDS011;28293;50.930;3.464;2023-03-01T01:57:37;17.70;;;13.48;;
42682;SDS011;28293;50.930;3.464;2023-03-01T02:00:10;19.20;;;15.02;;
42682;SDS011;28293;50.930;3.464;2023-03-01T02:02:40;21.23;;;13.93;;
42682;SDS011;28293;50.930;3.464;2023-03-01T02:05:12;20.48;;;14.88;;
42682;SDS011;28293;50.930;3.464;2023-03-01T02:07:53;21.88;;;15.88;;
42682;SDS011;28293;50.930;3.464;2023-03-01T02:10:20;23.48;;;15.80;;
42682;SDS011;28293;50.930;3.464;2023-03-01T02:12:47;20.67;;;15.48;;
42682;SDS011;28293;50.930;3.464;2023-03-01T02:15:13;21.33;;;15.63;;
42682;SDS011;28293;50.930;3.464;2023-03-01T02:17:39;23.23;;;16.27;;
42682;SDS011;28293;50.930;3.464;2023-03-01T02:23:10;21.08;;;16.73;;
42682;SDS011;28293;50.930;3.464;2023-03-01T02:30:59;22.10;;;17.00;;
42682;SDS011;28293;50.930;3.464;2023-03-01T02:33:43;23.85;;;17.70;;
42682;SDS011;28293;50.930;3.464;2023-03-01T02:36:11;24.83;;;18.33;;
42682;SDS011;28293;50.930;3.464;2023-03-01T02:38:40;24.45;;;18.00;;
42682;SDS011;28293;50.930;3.464;2023-03-01T02:41:07;25.13;;;18.42;;
42682;SDS011;28293;50.930;3.464;2023-03-01T02:43:36;26.30;;;17.75;;
42682;SDS011;28293;50.930;3.464;2023-03-01T02:46:04;24.90;;;18.67;;
42682;SDS011;28293;50.930;3.464;2023-03-01T02:48:42;28.38;;;21.15;;
42682;SDS011;28293;50.930;3.464;2023-03-01T02:52:04;29.05;;;19.35;;
42682;SDS011;28293;50.930;3.464;2023-03-01T02:56:47;26.70;;;20.48;;
42682;SDS011;28293;50.930;3.464;2023-03-01T02:59:15;28.30;;;20.50;;
42682;SDS011;28293;50.930;3.464;2023-03-01T03:01:43;30.42;;;21.42;;
42682;SDS011;28293;50.930;3.464;2023-03-01T03:04:13;28.98;;;20.90;;
42682;SDS011;28293;50.930;3.464;2023-03-01T03:06:42;30.25;;;21.50;;
42682;SDS011;28293;50.930;3.464;2023-03-01T03:09:09;29.75;;;21.40;;
42682;SDS011;28293;50.930;3.464;2023-03-01T03:11:35;28.90;;;20.85;;
42682;SDS011;28293;50.930;3.464;2023-03-01T03:14:01;30.50;;;21.42;;
42682;SDS011;28293;50.930;3.464;2023-03-01T03:16:27;27.73;;;21.05;;
42682;SDS011;28293;50.930;3.464;2023-03-01T03:18:54;31.30;;;22.60;;
42682;SDS011;28293;50.930;3.464;2023-03-01T03:21:29;30.40;;;22.40;;
42682;SDS011;28293;50.930;3.464;2023-03-01T03:23:56;31.45;;;22.58;;
42682;SDS011;28293;50.930;3.464;2023-03-01T03:26:22;32.33;;;23.63;;
42682;SDS011;28293;50.930;3.464;2023-03-01T03:28:48;31.70;;;23.33;;
42682;SDS011;28293;50.930;3.464;2023-03-01T03:31:14;33.03;;;24.60;;
42682;SDS011;28293;50.930;3.464;2023-03-01T03:33:39;32.70;;;24.73;;
42682;SDS011;28293;50.930;3.464;2023-03-01T03:36:05;32.05;;;23.63;;
42682;SDS011;28293;50.930;3.464;2023-03-01T03:38:31;36.50;;;24.33;;
42682;SDS011;28293;50.930;3.464;2023-03-01T03:41:01;35.80;;;25.55;;
42682;SDS011;28293;50.930;3.464;2023-03-01T03:43:28;36.30;;;24.98;;
42682;SDS011;28293;50.930;3.464;2023-03-01T03:45:57;38.53;;;26.52;;
42682;SDS011;28293;50.930;3.464;2023-03-01T03:48:23;36.13;;;26.05;;
42682;SDS011;28293;50.930;3.464;2023-03-01T03:50:50;40.47;;;27.55;;
42682;SDS011;28293;50.930;3.464;2023-03-01T03:53:17;38.75;;;27.45;;
42682;SDS011;28293;50.930;3.464;2023-03-01T03:55:44;37.10;;;27.30;;
42682;SDS011;28293;50.930;3.464;2023-03-01T03:58:10;37.80;;;27.67;;
42682;SDS011;28293;50.930;3.464;2023-03-01T04:00:37;41.58;;;28.88;;
42682;SDS011;28293;50.930;3.464;2023-03-01T04:03:05;39.38;;;28.42;;
42682;SDS011;28293;50.930;3.464;2023-03-01T04:05:32;44.17;;;27.77;;
42682;SDS011;28293;50.930;3.464;2023-03-01T04:07:57;42.95;;;28.88;;
42682;SDS011;28293;50.930;3.464;2023-03-01T04:10:27;39.28;;;28.50;;
42682;SDS011;28293;50.930;3.464;2023-03-01T04:12:57;38.17;;;27.70;;
42682;SDS011;28293;50.930;3.464;2023-03-01T04:15:23;39.47;;;28.13;;
42682;SDS011;28293;50.930;3.464;2023-03-01T04:17:51;40.63;;;27.65;;
42682;SDS011;28293;50.930;3.464;2023-03-01T04:20:18;38.88;;;27.73;;
42682;SDS011;28293;50.930;3.464;2023-03-01T04:22:50;37.83;;;26.65;;
42682;SDS011;28293;50.930;3.464;2023-03-01T04:25:17;40.08;;;29.05;;
42682;SDS011;28293;50.930;3.464;2023-03-01T04:27:43;41.22;;;27.60;;
42682;SDS011;28293;50.930;3.464;2023-03-01T04:30:09;40.80;;;27.90;;
42682;SDS011;28293;50.930;3.464;2023-03-01T04:32:35;42.05;;;27.02;;
42682;SDS011;28293;50.930;3.464;2023-03-01T04:35:01;39.80;;;28.20;;
42682;SDS011;28293;50.930;3.464;2023-03-01T04:37:26;39.22;;;27.42;;
42682;SDS011;28293;50.930;3.464;2023-03-01T04:39:52;38.03;;;27.38;;
42682;SDS011;28293;50.930;3.464;2023-03-01T04:42:18;39.03;;;27.10;;
42682;SDS011;28293;50.930;3.464;2023-03-01T04:44:45;40.58;;;28.67;;
42682;SDS011;28293;50.930;3.464;2023-03-01T04:47:11;38.92;;;26.20;;
42682;SDS011;28293;50.930;3.464;2023-03-01T04:49:37;39.67;;;26.40;;
42682;SDS011;28293;50.930;3.464;2023-03-01T04:52:03;39.28;;;26.80;;
42682;SDS011;28293;50.930;3.464;2023-03-01T04:54:30;39.30;;;26.45;;
42682;SDS011;28293;50.930;3.464;2023-03-01T04:56:57;38.90;;;27.38;;
42682;SDS011;28293;50.930;3.464;2023-03-01T04:59:23;37.13;;;28.10;;
42682;SDS011;28293;50.930;3.464;2023-03-01T05:01:50;39.38;;;27.20;;
42682;SDS011;28293;50.930;3.464;2023-03-01T05:04:16;39.90;;;28.40;;
42682;SDS011;28293;50.930;3.464;2023-03-01T05:06:42;37.55;;;26.15;;
42682;SDS011;28293;50.930;3.464;2023-03-01T05:09:08;39.72;;;27.85;;
42682;SDS011;28293;50.930;3.464;2023-03-01T05:11:34;42.42;;;27.90;;
42682;SDS011;28293;50.930;3.464;2023-03-01T05:14:10;38.00;;;26.48;;
42682;SDS011;28293;50.930;3.464;2023-03-01T05:16:36;39.33;;;26.50;;
42682;SDS011;28293;50.930;3.464;2023-03-01T05:19:02;40.17;;;27.27;;
42682;SDS011;28293;50.930;3.464;2023-03-01T05:21:39;37.83;;;27.20;;
42682;SDS011;28293;50.930;3.464;2023-03-01T05:24:24;36.60;;;26.02;;
42682;SDS011;28293;50.930;3.464;2023-03-01T05:26:51;37.30;;;26.17;;
42682;SDS011;28293;50.930;3.464;2023-03-01T05:29:21;40.17;;;27.27;;
42682;SDS011;28293;50.930;3.464;2023-03-01T05:32:00;38.67;;;27.13;;
42682;SDS011;28293;50.930;3.464;2023-03-01T05:34:28;36.17;;;23.85;;
42682;SDS011;28293;50.930;3.464;2023-03-01T05:36:56;36.13;;;25.65;;
42682;SDS011;28293;50.930;3.464;2023-03-01T05:39:22;36.67;;;25.50;;
42682;SDS011;28293;50.930;3.464;2023-03-01T05:41:53;37.00;;;24.60;;
42682;SDS011;28293;50.930;3.464;2023-03-01T05:44:20;34.65;;;24.85;;
42682;SDS011;28293;50.930;3.464;2023-03-01T05:46:46;35.65;;;24.60;;
42682;SDS011;28293;50.930;3.464;2023-03-01T05:49:12;37.33;;;24.73;;
42682;SDS011;28293;50.930;3.464;2023-03-01T05:51:39;33.83;;;23.58;;
42682;SDS011;28293;50.930;3.464;2023-03-01T05:54:06;37.00;;;25.40;;
42682;SDS011;28293;50.930;3.464;2023-03-01T05:56:33;35.70;;;25.38;;
42682;SDS011;28293;50.930;3.464;2023-03-01T05:58:59;37.33;;;24.65;;
42682;SDS011;28293;50.930;3.464;2023-03-01T06:01:26;36.08;;;24.88;;
42682;SDS011;28293;50.930;3.464;2023-03-01T06:03:51;32.97;;;23.83;;
42682;SDS011;28293;50.930;3.464;2023-03-01T06:06:17;39.15;;;25.30;;
42682;SDS011;28293;50.930;3.464;2023-03-01T06:08:43;33.60;;;24.38;;
42682;SDS011;28293;50.930;3.464;2023-03-01T06:11:08;34.70;;;23.92;;
42682;SDS011;28293;50.930;3.464;2023-03-01T06:13:34;34.10;;;24.92;;
42682;SDS011;28293;50.930;3.464;2023-03-01T06:16:00;33.67;;;23.85;;
42682;SDS011;28293;50.930;3.464;2023-03-01T06:18:25;38.25;;;25.75;;
42682;SDS011;28293;50.930;3.464;2023-03-01T06:20:54;36.60;;;25.40;;
42682;SDS011;28293;50.930;3.464;2023-03-01T06:23:21;37.00;;;25.08;;
42682;SDS011;28293;50.930;3.464;2023-03-01T06:25:47;35.55;;;26.13;;
42682;SDS011;28293;50.930;3.464;2023-03-01T06:28:13;35.90;;;24.77;;
42682;SDS011;28293;50.930;3.464;2023-03-01T06:30:39;38.92;;;25.42;;
42682;SDS011;28293;50.930;3.464;2023-03-01T06:33:05;34.85;;;24.35;;
42682;SDS011;28293;50.930;3.464;2023-03-01T06:35:30;36.10;;;24.92;;
42682;SDS011;28293;50.930;3.464;2023-03-01T06:37:57;38.80;;;25.60;;
42682;SDS011;28293;50.930;3.464;2023-03-01T06:40:24;37.83;;;24.80;;
42682;SDS011;28293;50.930;3.464;2023-03-01T06:42:50;40.17;;;25.50;;
42682;SDS011;28293;50.930;3.464;2023-03-01T06:45:17;33.50;;;24.02;;
42682;SDS011;28293;50.930;3.464;2023-03-01T06:47:44;33.13;;;23.48;;
42682;SDS011;28293;50.930;3.464;2023-03-01T06:50:09;35.20;;;24.83;;
42682;SDS011;28293;50.930;3.464;2023-03-01T06:52:36;38.22;;;25.25;;
42682;SDS011;28293;50.930;3.464;2023-03-01T06:55:02;36.47;;;23.92;;
42682;SDS011;28293;50.930;3.464;2023-03-01T06:57:28;38.55;;;25.65;;
42682;SDS011;28293;50.930;3.464;2023-03-01T06:59:54;34.05;;;24.50;;
42682;SDS011;28293;50.930;3.464;2023-03-01T07:02:19;35.53;;;24.55;;
42682;SDS011;28293;50.930;3.464;2023-03-01T07:04:45;36.40;;;24.38;;
42682;SDS011;28293;50.930;3.464;2023-03-01T07:07:11;35.20;;;23.63;;
42682;SDS011;28293;50.930;3.464;2023-03-01T07:09:37;35.80;;;24.02;;
42682;SDS011;28293;50.930;3.464;2023-03-01T07:12:02;33.97;;;24.40;;
42682;SDS011;28293;50.930;3.464;2023-03-01T07:14:28;37.60;;;26.77;;
42682;SDS011;28293;50.930;3.464;2023-03-01T07:16:54;32.60;;;23.75;;
42682;SDS011;28293;50.930;3.464;2023-03-01T07:19:20;34.20;;;22.70;;
42682;SDS011;28293;50.930;3.464;2023-03-01T07:21:47;32.90;;;23.08;;
42682;SDS011;28293;50.930;3.464;2023-03-01T07:24:12;35.35;;;24.30;;
42682;SDS011;28293;50.930;3.464;2023-03-01T07:26:38;32.15;;;22.65;;
42682;SDS011;28293;50.930;3.464;2023-03-01T07:29:04;36.47;;;22.92;;
42682;SDS011;28293;50.930;3.464;2023-03-01T07:31:31;33.53;;;22.52;;
42682;SDS011;28293;50.930;3.464;2023-03-01T07:33:57;31.92;;;22.90;;
42682;SDS011;28293;50.930;3.464;2023-03-01T07:36:23;33.72;;;21.98;;
42682;SDS011;28293;50.930;3.464;2023-03-01T07:38:49;33.17;;;23.83;;
42682;SDS011;28293;50.930;3.464;2023-03-01T07:41:16;35.83;;;22.50;;
42682;SDS011;28293;50.930;3.464;2023-03-01T07:43:43;34.97;;;24.02;;
42682;SDS011;28293;50.930;3.464;2023-03-01T07:46:08;36.15;;;26.20;;
42682;SDS011;28293;50.930;3.464;2023-03-01T07:48:34;32.75;;;22.88;;
42682;SDS011;28293;50.930;3.464;2023-03-01T07:51:00;31.30;;;22.42;;
42682;SDS011;28293;50.930;3.464;2023-03-01T07:53:28;29.23;;;21.73;;
42682;SDS011;28293;50.930;3.464;2023-03-01T07:56:00;32.78;;;22.85;;
42682;SDS011;28293;50.930;3.464;2023-03-01T07:58:27;33.70;;;20.17;;
42682;SDS011;28293;50.930;3.464;2023-03-01T08:00:53;28.60;;;20.38;;
42682;SDS011;28293;50.930;3.464;2023-03-01T08:03:19;32.72;;;21.25;;
42682;SDS011;28293;50.930;3.464;2023-03-01T08:05:44;29.98;;;21.60;;
42682;SDS011;28293;50.930;3.464;2023-03-01T08:08:10;31.27;;;20.63;;
42682;SDS011;28293;50.930;3.464;2023-03-01T08:10:36;31.13;;;22.65;;
42682;SDS011;28293;50.930;3.464;2023-03-01T08:13:02;31.25;;;21.58;;
42682;SDS011;28293;50.930;3.464;2023-03-01T08:15:27;32.50;;;21.67;;
42682;SDS011;28293;50.930;3.464;2023-03-01T08:17:53;29.63;;;20.90;;
42682;SDS011;28293;50.930;3.464;2023-03-01T08:20:19;32.90;;;22.17;;
42682;SDS011;28293;50.930;3.464;2023-03-01T08:22:45;30.08;;;22.67;;
42682;SDS011;28293;50.930;3.464;2023-03-01T08:25:10;30.95;;;23.50;;
42682;SDS011;28293;50.930;3.464;2023-03-01T08:27:36;28.52;;;19.92;;
42682;SDS011;28293;50.930;3.464;2023-03-01T08:30:02;34.10;;;21.98;;
42682;SDS011;28293;50.930;3.464;2023-03-01T08:32:28;30.83;;;22.17;;
42682;SDS011;28293;50.930;3.464;2023-03-01T08:34:53;28.40;;;20.73;;
42682;SDS011;28293;50.930;3.464;2023-03-01T08:37:19;28.65;;;18.80;;
42682;SDS011;28293;50.930;3.464;2023-03-01T08:39:45;30.63;;;21.05;;
42682;SDS011;28293;50.930;3.464;2023-03-01T08:42:11;30.40;;;20.00;;
42682;SDS011;28293;50.930;3.464;2023-03-01T08:44:37;28.17;;;18.95;;
42682;SDS011;28293;50.930;3.464;2023-03-01T08:47:02;23.52;;;16.98;;
42682;SDS011;28293;50.930;3.464;2023-03-01T08:49:29;26.00;;;16.88;;
42682;SDS011;28293;50.930;3.464;2023-03-01T08:51:57;22.67;;;16.40;;
42682;SDS011;28293;50.930;3.464;2023-03-01T08:54:23;22.17;;;15.52;;
42682;SDS011;28293;50.930;3.464;2023-03-01T08:56:49;22.92;;;15.30;;
42682;SDS011;28293;50.930;3.464;2023-03-01T08:59:17;22.67;;;14.63;;
42682;SDS011;28293;50.930;3.464;2023-03-01T09:01:43;20.02;;;14.98;;
42682;SDS011;28293;50.930;3.464;2023-03-01T09:04:10;19.30;;;14.15;;
42682;SDS011;28293;50.930;3.464;2023-03-01T09:06:36;19.65;;;13.43;;
42682;SDS011;28293;50.930;3.464;2023-03-01T09:09:02;20.25;;;13.27;;
42682;SDS011;28293;50.930;3.464;2023-03-01T09:11:29;15.63;;;12.38;;
42682;SDS011;28293;50.930;3.464;2023-03-01T09:13:55;18.73;;;11.65;;
42682;SDS011;28293;50.930;3.464;2023-03-01T09:16:21;17.17;;;11.93;;
42682;SDS011;28293;50.930;3.464;2023-03-01T09:18:54;17.08;;;12.35;;
42682;SDS011;28293;50.930;3.464;2023-03-01T09:21:20;17.00;;;11.88;;
42682;SDS011;28293;50.930;3.464;2023-03-01T09:23:47;16.63;;;10.95;;
42682;SDS011;28293;50.930;3.464;2023-03-01T09:26:18;16.83;;;11.60;;
42682;SDS011;28293;50.930;3.464;2023-03-01T09:28:46;17.52;;;12.23;;
42682;SDS011;28293;50.930;3.464;2023-03-01T09:31:13;17.98;;;11.40;;
42682;SDS011;28293;50.930;3.464;2023-03-01T09:33:39;15.00;;;12.18;;
42682;SDS011;28293;50.930;3.464;2023-03-01T09:36:07;18.58;;;11.70;;
42682;SDS011;28293;50.930;3.464;2023-03-01T09:38:37;16.33;;;10.98;;
42682;SDS011;28293;50.930;3.464;2023-03-01T09:41:09;16.02;;;10.98;;
42682;SDS011;28293;50.930;3.464;2023-03-01T09:46:53;18.15;;;11.75;;
42682;SDS011;28293;50.930;3.464;2023-03-01T09:49:23;15.70;;;10.48;;
42682;SDS011;28293;50.930;3.464;2023-03-01T09:51:58;16.13;;;10.98;;
42682;SDS011;28293;50.930;3.464;2023-03-01T09:54:39;16.88;;;10.90;;
42682;SDS011;28293;50.930;3.464;2023-03-01T10:05:59;16.17;;;11.07;;
42682;SDS011;28293;50.930;3.464;2023-03-01T10:11:22;16.35;;;11.05;;
42682;SDS011;28293;50.930;3.464;2023-03-01T10:14:38;16.80;;;11.50;;
42682;SDS011;28293;50.930;3.464;2023-03-01T10:17:03;14.85;;;10.95;;
42682;SDS011;28293;50.930;3.464;2023-03-01T10:19:44;16.05;;;10.45;;
42682;SDS011;28293;50.930;3.464;2023-03-01T10:24:39;14.93;;;10.60;;
42682;SDS011;28293;50.930;3.464;2023-03-01T10:27:07;16.67;;;11.05;;
42682;SDS011;28293;50.930;3.464;2023-03-01T10:32:41;16.05;;;11.57;;
42682;SDS011;28293;50.930;3.464;2023-03-01T10:35:40;16.45;;;10.98;;
42682;SDS011;28293;50.930;3.464;2023-03-01T10:38:09;16.88;;;11.63;;
42682;SDS011;28293;50.930;3.464;2023-03-01T10:40:48;17.90;;;12.00;;
42682;SDS011;28293;50.930;3.464;2023-03-01T10:43:19;15.23;;;11.00;;
42682;SDS011;28293;50.930;3.464;2023-03-01T10:45:46;15.52;;;11.35;;
42682;SDS011;28293;50.930;3.464;2023-03-01T10:48:17;18.42;;;11.63;;
42682;SDS011;28293;50.930;3.464;2023-03-01T10:50:47;18.08;;;11.15;;
42682;SDS011;28293;50.930;3.464;2023-03-01T10:53:25;16.83;;;10.88;;
42682;SDS011;28293;50.930;3.464;2023-03-01T10:56:15;17.55;;;11.55;;
42682;SDS011;28293;50.930;3.464;2023-03-01T10:58:56;16.15;;;11.25;;
42682;SDS011;28293;50.930;3.464;2023-03-01T11:06:33;16.10;;;10.80;;
42682;SDS011;28293;50.930;3.464;2023-03-01T11:09:17;15.45;;;11.02;;
42682;SDS011;28293;50.930;3.464;2023-03-01T11:14:18;13.82;;;10.35;;
42682;SDS011;28293;50.930;3.464;2023-03-01T11:16:47;18.38;;;11.23;;
42682;SDS011;28293;50.930;3.464;2023-03-01T11:19:22;15.50;;;10.02;;
42682;SDS011;28293;50.930;3.464;2023-03-01T11:22:06;14.75;;;9.75;;
42682;SDS011;28293;50.930;3.464;2023-03-01T11:24:44;16.17;;;10.60;;
42682;SDS011;28293;50.930;3.464;2023-03-01T11:29:45;14.27;;;9.30;;
42682;SDS011;28293;50.930;3.464;2023-03-01T11:32:16;15.35;;;9.65;;
42682;SDS011;28293;50.930;3.464;2023-03-01T11:34:53;15.38;;;9.95;;
42682;SDS011;28293;50.930;3.464;2023-03-01T11:37:44;14.13;;;9.52;;
42682;SDS011;28293;50.930;3.464;2023-03-01T11:40:24;16.02;;;10.68;;
42682;SDS011;28293;50.930;3.464;2023-03-01T11:43:05;14.80;;;10.32;;
42682;SDS011;28293;50.930;3.464;2023-03-01T11:46:06;15.63;;;10.25;;
42682;SDS011;28293;50.930;3.464;2023-03-01T11:53:52;15.18;;;10.48;;
42682;SDS011;28293;50.930;3.464;2023-03-01T11:56:32;17.85;;;10.13;;
42682;SDS011;28293;50.930;3.464;2023-03-01T12:04:42;13.73;;;9.23;;
42682;SDS011;28293;50.930;3.464;2023-03-01T12:10:23;13.05;;;8.77;;
42682;SDS011;28293;50.930;3.464;2023-03-01T12:15:33;14.20;;;8.70;;
42682;SDS011;28293;50.930;3.464;2023-03-01T12:21:30;14.05;;;8.80;;
42682;SDS011;28293;50.930;3.464;2023-03-01T12:24:28;12.95;;;8.07;;
42682;SDS011;28293;50.930;3.464;2023-03-01T12:32:58;11.90;;;8.65;;
42682;SDS011;28293;50.930;3.464;2023-03-01T12:36:11;13.32;;;9.02;;
42682;SDS011;28293;50.930;3.464;2023-03-01T12:38:48;13.98;;;9.02;;
42682;SDS011;28293;50.930;3.464;2023-03-01T12:44:35;14.50;;;10.07;;
42682;SDS011;28293;50.930;3.464;2023-03-01T12:47:26;14.00;;;9.37;;
42682;SDS011;28293;50.930;3.464;2023-03-01T12:50:18;14.48;;;9.65;;
42682;SDS011;28293;50.930;3.464;2023-03-01T12:52:47;13.65;;;9.50;;
42682;SDS011;28293;50.930;3.464;2023-03-01T12:58:01;14.45;;;9.50;;
42682;SDS011;28293;50.930;3.464;2023-03-01T13:03:35;17.95;;;10.38;;
42682;SDS011;28293;50.930;3.464;2023-03-01T13:17:49;14.10;;;9.63;;
42682;SDS011;28293;50.930;3.464;2023-03-01T13:20:18;17.95;;;10.07;;
42682;SDS011;28293;50.930;3.464;2023-03-01T13:23:04;17.00;;;9.50;;
42682;SDS011;28293;50.930;3.464;2023-03-01T13:25:33;18.45;;;9.43;;
42682;SDS011;28293;50.930;3.464;2023-03-01T13:31:10;13.98;;;9.55;;
42682;SDS011;28293;50.930;3.464;2023-03-01T13:33:59;15.75;;;10.27;;
42682;SDS011;28293;50.930;3.464;2023-03-01T13:46:47;15.93;;;10.38;;
42682;SDS011;28293;50.930;3.464;2023-03-01T13:49:16;13.88;;;9.00;;
42682;SDS011;28293;50.930;3.464;2023-03-01T13:51:48;17.92;;;9.48;;
42682;SDS011;28293;50.930;3.464;2023-03-01T13:54:15;15.73;;;9.60;;
42682;SDS011;28293;50.930;3.464;2023-03-01T13:56:44;15.88;;;9.75;;
42682;SDS011;28293;50.930;3.464;2023-03-01T13:59:17;13.48;;;9.25;;
42682;SDS011;28293;50.930;3.464;2023-03-01T14:01:51;13.68;;;9.13;;
42682;SDS011;28293;50.930;3.464;2023-03-01T14:04:28;15.40;;;10.73;;
42682;SDS011;28293;50.930;3.464;2023-03-01T14:07:16;13.02;;;9.60;;
42682;SDS011;28293;50.930;3.464;2023-03-01T14:09:45;16.17;;;9.80;;
42682;SDS011;28293;50.930;3.464;2023-03-01T14:19:57;14.02;;;9.27;;
42682;SDS011;28293;50.930;3.464;2023-03-01T14:24:59;12.15;;;8.05;;
42682;SDS011;28293;50.930;3.464;2023-03-01T14:27:32;13.75;;;8.75;;
42682;SDS011;28293;50.930;3.464;2023-03-01T14:32:37;11.57;;;8.48;;
42682;SDS011;28293;50.930;3.464;2023-03-01T14:35:18;13.90;;;9.18;;
42682;SDS011;28293;50.930;3.464;2023-03-01T14:37:49;13.88;;;8.63;;
42682;SDS011;28293;50.930;3.464;2023-03-01T14:40:23;14.95;;;9.55;;
42682;SDS011;28293;50.930;3.464;2023-03-01T14:42:58;16.20;;;10.07;;
42682;SDS011;28293;50.930;3.464;2023-03-01T14:45:27;17.05;;;10.63;;
42682;SDS011;28293;50.930;3.464;2023-03-01T14:47:55;17.25;;;9.35;;
42682;SDS011;28293;50.930;3.464;2023-03-01T14:50:27;15.07;;;9.95;;
42682;SDS011;28293;50.930;3.464;2023-03-01T14:52:58;15.10;;;10.20;;
42682;SDS011;28293;50.930;3.464;2023-03-01T14:55:29;14.60;;;9.52;;
42682;SDS011;28293;50.930;3.464;2023-03-01T14:57:56;16.58;;;9.15;;
42682;SDS011;28293;50.930;3.464;2023-03-01T15:00:26;15.15;;;9.73;;
42682;SDS011;28293;50.930;3.464;2023-03-01T15:02:54;13.60;;;8.90;;
42682;SDS011;28293;50.930;3.464;2023-03-01T15:05:24;13.07;;;9.10;;
42682;SDS011;28293;50.930;3.464;2023-03-01T15:07:54;13.52;;;9.07;;
42682;SDS011;28293;50.930;3.464;2023-03-01T15:10:25;14.50;;;9.63;;
42682;SDS011;28293;50.930;3.464;2023-03-01T15:13:19;13.40;;;9.15;;
42682;SDS011;28293;50.930;3.464;2023-03-01T15:15:49;16.10;;;9.38;;
42682;SDS011;28293;50.930;3.464;2023-03-01T15:18:20;15.48;;;9.50;;
42682;SDS011;28293;50.930;3.464;2023-03-01T15:20:49;16.90;;;10.15;;
42682;SDS011;28293;50.930;3.464;2023-03-01T15:23:20;14.57;;;9.65;;
42682;SDS011;28293;50.930;3.464;2023-03-01T15:25:48;16.73;;;9.48;;
42682;SDS011;28293;50.930;3.464;2023-03-01T15:28:21;13.57;;;8.75;;
42682;SDS011;28293;50.930;3.464;2023-03-01T15:33:43;14.35;;;9.27;;
42682;SDS011;28293;50.930;3.464;2023-03-01T15:36:36;14.82;;;9.30;;
42682;SDS011;28293;50.930;3.464;2023-03-01T15:39:02;13.07;;;10.18;;
42682;SDS011;28293;50.930;3.464;2023-03-01T15:41:32;13.60;;;10.10;;
42682;SDS011;28293;50.930;3.464;2023-03-01T15:46:47;15.75;;;8.48;;
42682;SDS011;28293;50.930;3.464;2023-03-01T15:52:05;13.90;;;9.18;;
42682;SDS011;28293;50.930;3.464;2023-03-01T15:54:38;13.32;;;9.63;;
42682;SDS011;28293;50.930;3.464;2023-03-01T15:57:07;14.80;;;9.73;;
42682;SDS011;28293;50.930;3.464;2023-03-01T15:59:37;15.55;;;10.07;;
42682;SDS011;28293;50.930;3.464;2023-03-01T16:02:07;15.50;;;10.15;;
42682;SDS011;28293;50.930;3.464;2023-03-01T16:04:34;12.73;;;9.52;;
42682;SDS011;28293;50.930;3.464;2023-03-01T16:07:00;14.70;;;9.45;;
42682;SDS011;28293;50.930;3.464;2023-03-01T16:09:26;15.32;;;9.85;;
42682;SDS011;28293;50.930;3.464;2023-03-01T16:11:52;15.13;;;10.48;;
42682;SDS011;28293;50.930;3.464;2023-03-01T16:14:18;13.80;;;10.38;;
42682;SDS011;28293;50.930;3.464;2023-03-01T16:16:45;17.38;;;10.30;;
42682;SDS011;28293;50.930;3.464;2023-03-01T16:19:12;15.38;;;10.85;;
42682;SDS011;28293;50.930;3.464;2023-03-01T16:21:39;15.10;;;10.10;;
42682;SDS011;28293;50.930;3.464;2023-03-01T16:24:04;16.17;;;11.27;;
42682;SDS011;28293;50.930;3.464;2023-03-01T16:26:31;16.38;;;10.07;;
42682;SDS011;28293;50.930;3.464;2023-03-01T16:28:57;14.70;;;10.10;;
42682;SDS011;28293;50.930;3.464;2023-03-01T16:31:23;18.67;;;10.70;;
42682;SDS011;28293;50.930;3.464;2023-03-01T16:33:55;13.93;;;10.20;;
42682;SDS011;28293;50.930;3.464;2023-03-01T16:36:22;17.77;;;11.32;;
42682;SDS011;28293;50.930;3.464;2023-03-01T16:38:49;16.45;;;12.52;;
42682;SDS011;28293;50.930;3.464;2023-03-01T16:41:19;22.25;;;12.38;;